Time;durP1;ratioP1;P1;durP2;ratioP2;P2;SDS_P1;SDS_P2;PMS_P1;PMS_P2;Temp;Humidity;BMP_temperature;BMP_pressure;BME280_temperature;BME280_humidity;BME280_pressure;Samples;Min_cycle;Max_cycle;Signal;HPM_P1;HPM_P2
2021/06/08 00:01:12;;;;;;;13.17;11.50;;;;;;;17.16;92.33;94983.22;4981517;28;20455;-82
2021/06/08 00:03:38;;;;;;;11.80;10.60;;;;;;;17.16;91.47;94991.19;5017135;28;20801;-81
2021/06/08 00:06:05;;;;;;;12.90;10.67;;;;;;;17.07;92.56;94976.28;5017147;28;20451;-81
2021/06/08 00:08:32;;;;;;;12.57;11.23;;;;;;;17.06;92.71;94975.47;4985136;28;20971;-81
2021/06/08 00:10:58;;;;;;;13.10;11.90;;;;;;;17.04;92.42;94980.06;4982647;28;20476;-81
2021/06/08 00:13:26;;;;;;;12.87;10.93;;;;;;;17.02;92.72;94969.63;5016839;28;20447;-81
2021/06/08 00:15:53;;;;;;;12.70;10.90;;;;;;;17.02;92.89;94966.16;5016760;28;20691;-81
2021/06/08 00:18:20;;;;;;;11.47;10.37;;;;;;;17.08;92.67;94967.34;5017600;28;20894;-81
2021/06/08 00:20:46;;;;;;;11.97;10.20;;;;;;;17.07;91.77;94965.69;5016522;28;20439;-81
2021/06/08 00:23:13;;;;;;;10.97;9.97;;;;;;;17.03;91.33;94968.66;5016933;28;20426;-81
2021/06/08 00:25:39;;;;;;;11.80;10.60;;;;;;;16.99;91.57;94961.19;5016419;28;20446;-81
2021/06/08 00:28:07;;;;;;;12.40;10.33;;;;;;;16.90;92.68;94952.44;5017121;28;20451;-81
2021/06/08 00:30:36;;;;;;;11.87;10.60;;;;;;;16.79;92.88;94957.25;5016987;28;20934;-81
2021/06/08 00:33:02;;;;;;;11.90;10.67;;;;;;;16.77;93.23;94964.50;5016932;28;20434;-81
2021/06/08 00:35:30;;;;;;;12.77;11.40;;;;;;;16.72;93.82;94949.13;5016668;28;20437;-81
2021/06/08 00:37:57;;;;;;;18.23;11.50;;;;;;;16.77;94.17;94951.28;5016644;28;20542;-81
2021/06/08 00:40:26;;;;;;;16.37;10.90;;;;;;;16.69;94.02;94944.97;5016971;28;20459;-81
2021/06/08 00:42:53;;;;;;;10.77;9.70;;;;;;;16.67;93.28;94938.19;5016635;28;20446;-81
2021/06/08 00:45:19;;;;;;;13.10;11.27;;;;;;;16.63;93.47;94945.63;5016780;28;20437;-81
2021/06/08 00:47:47;;;;;;;11.50;10.10;;;;;;;16.62;93.71;94943.13;5016523;28;20443;-81
2021/06/08 00:50:14;;;;;;;19.00;11.13;;;;;;;16.61;92.84;94944.13;4982338;28;20461;-81
2021/06/08 00:52:41;;;;;;;13.23;11.83;;;;;;;16.60;93.69;94935.34;5016578;28;20902;-81
2021/06/08 00:55:10;;;;;;;17.50;11.27;;;;;;;16.59;93.50;94940.81;5016187;28;20794;-81
2021/06/08 00:57:37;;;;;;;12.80;11.47;;;;;;;16.58;93.47;94941.81;4982188;28;20445;-81
2021/06/08 01:00:05;;;;;;;12.30;11.00;;;;;;;16.54;93.80;94938.69;5016081;28;20500;-81
2021/06/08 01:02:32;;;;;;;12.77;11.33;;;;;;;16.53;94.16;94933.53;5016294;28;20550;-81
2021/06/08 01:05:03;;;;;;;14.10;12.10;;;;;;;16.52;94.47;94934.53;4982107;28;20453;-81
2021/06/08 01:07:32;;;;;;;12.47;11.30;;;;;;;16.45;93.88;94930.88;5016503;28;20462;-82
2021/06/08 01:09:59;;;;;;;14.03;11.67;;;;;;;16.37;94.35;94929.06;5015702;28;20485;-82
2021/06/08 01:12:26;;;;;;;16.43;12.40;;;;;;;16.42;94.47;94924.09;5016328;28;20477;-82
2021/06/08 01:14:53;;;;;;;15.43;12.07;;;;;;;16.45;93.85;94922.91;5016290;28;20925;-82
2021/06/08 01:17:19;;;;;;;12.27;10.97;;;;;;;16.48;93.56;94917.28;5015987;28;20431;-81
2021/06/08 01:23:09;;;;;;;15.43;13.80;;;;;;;16.43;93.30;94910.69;5016340;28;20509;-82
2021/06/08 01:25:36;;;;;;;18.70;13.77;;;;;;;16.41;93.26;94909.19;5016383;28;20421;-81
2021/06/08 01:28:02;;;;;;;21.93;15.43;;;;;;;16.39;93.46;94911.19;4966060;28;20444;-81
2021/06/08 01:30:30;;;;;;;47.03;17.20;;;;;;;16.30;93.68;94926.25;5015826;28;20838;-82
2021/06/08 01:32:57;;;;;;;27.87;18.43;;;;;;;16.20;94.23;94927.41;4981356;28;20433;-82
2021/06/08 01:35:25;;;;;;;28.37;19.20;;;;;;;16.04;95.21;94926.38;5015079;28;20441;-82
2021/06/08 01:37:52;;;;;;;48.47;20.10;;;;;;;16.04;96.25;94923.72;5014964;28;20988;-82
2021/06/08 01:40:21;;;;;;;29.43;21.07;;;;;;;16.06;97.54;94919.09;5015290;28;20433;-82
2021/06/08 01:42:48;;;;;;;28.73;21.10;;;;;;;16.11;98.62;94923.88;5015534;28;20449;-82
2021/06/08 01:48:37;;;;;;;61.93;20.33;;;;;;;15.44;100.00;94923.81;5014875;28;20465;-82
2021/06/08 01:51:13;;;;;;;29.03;22.37;;;;;;;15.58;100.00;94925.06;5015751;28;20479;-82
2021/06/08 01:53:48;;;;;;;42.70;21.27;;;;;;;15.56;100.00;94923.53;5016069;28;20440;-82
2021/06/08 01:56:21;;;;;;;31.07;19.43;;;;;;;15.55;100.00;94924.53;4982971;28;20455;-82
2021/06/08 01:59:02;;;;;;;24.63;19.03;;;;;;;15.62;100.00;94922.94;5015936;28;20934;-81
2021/06/08 02:01:40;;;;;;;28.03;19.50;;;;;;;15.72;100.00;94932.41;5023839;28;20437;-82
2021/06/08 02:04:14;;;;;;;30.27;19.90;;;;;;;15.80;100.00;94918.34;5022334;28;20443;-81
2021/06/08 02:06:46;;;;;;;30.53;20.73;;;;;;;15.87;100.00;94921.19;5022646;28;20449;-81
2021/06/08 02:09:19;;;;;;;28.53;21.77;;;;;;;15.94;100.00;94924.84;5024750;28;20484;-81
2021/06/08 02:11:51;;;;;;;25.67;19.83;;;;;;;16.02;100.00;94925.69;5023283;28;20531;-81
2021/06/08 02:14:24;;;;;;;32.07;22.23;;;;;;;16.10;100.00;94931.00;5024235;28;20504;-81
2021/06/08 02:16:54;;;;;;;42.03;22.83;;;;;;;16.13;100.00;94931.66;5015696;28;20435;-82
2021/06/08 02:19:23;;;;;;;48.53;22.63;;;;;;;16.11;100.00;94927.34;5015092;28;20416;-82
2021/06/08 02:21:56;;;;;;;33.93;23.10;;;;;;;16.13;100.00;94924.53;5015419;28;20446;-82
2021/06/08 02:24:25;;;;;;;38.83;22.87;;;;;;;16.17;100.00;94925.03;5014019;28;20432;-81
2021/06/08 02:26:58;;;;;;;27.47;20.13;;;;;;;16.23;100.00;94927.91;5015325;28;20443;-82
2021/06/08 02:29:25;;;;;;;30.47;21.90;;;;;;;16.27;100.00;94936.34;5014920;28;20824;-81
2021/06/08 02:31:55;;;;;;;27.23;16.80;;;;;;;16.29;100.00;94939.66;5014859;28;20477;-82
2021/06/08 02:34:22;;;;;;;21.20;14.90;;;;;;;16.29;100.00;94939.66;5015278;28;20436;-81
2021/06/08 02:36:49;;;;;;;16.43;13.37;;;;;;;16.24;99.55;94939.31;5015228;28;20437;-81
2021/06/08 02:46:02;;;;;;;14.63;12.80;;;;;;;16.19;95.16;94946.88;5014094;28;20429;-82
2021/06/08 02:48:30;;;;;;;13.07;11.67;;;;;;;16.19;94.54;94944.25;5014728;28;20436;-82
2021/06/08 02:50:57;;;;;;;16.30;14.17;;;;;;;16.20;94.31;94945.94;5014993;28;20473;-82
2021/06/08 02:53:26;;;;;;;13.50;12.10;;;;;;;16.16;94.26;94944.56;5014573;28;20449;-82
2021/06/08 02:59:14;;;;;;;12.97;11.60;;;;;;;16.02;94.77;94943.41;5013574;28;20518;-81
2021/06/08 03:01:50;;;;;;;11.70;10.50;;;;;;;16.01;93.61;94950.50;5014949;28;20440;-82
2021/06/08 03:04:19;;;;;;;11.60;10.40;;;;;;;16.00;93.10;94951.50;5014589;28;20426;-82
2021/06/08 03:06:50;;;;;;;12.10;10.43;;;;;;;15.96;92.45;94950.16;5014365;28;20921;-82
2021/06/08 03:09:21;;;;;;;16.63;11.93;;;;;;;16.00;94.15;94954.16;5014110;28;20488;-82
2021/06/08 03:11:51;;;;;;;23.83;12.20;;;;;;;15.98;94.59;94952.66;5014441;28;20474;-83
2021/06/08 03:14:20;;;;;;;19.33;13.30;;;;;;;16.03;95.10;94961.75;5014307;28;20424;-82
2021/06/08 03:16:52;;;;;;;25.43;13.17;;;;;;;16.04;95.74;94957.28;5014267;28;20489;-82
2021/06/08 03:29:26;;;;;;;25.73;15.90;;;;;;;16.13;98.66;94950.19;5013485;28;20447;-82
2021/06/08 03:31:54;;;;;;;28.37;18.50;;;;;;;16.08;99.59;94942.75;5014163;28;20470;-82
2021/06/08 03:34:21;;;;;;;24.50;17.00;;;;;;;16.15;100.00;94950.84;5014356;28;20446;-82
2021/06/08 03:36:51;;;;;;;23.03;17.23;;;;;;;16.19;99.52;94954.84;5018616;28;20446;-82
2021/06/08 03:39:20;;;;;;;28.03;17.27;;;;;;;16.18;99.31;94963.78;5018155;28;20450;-82
2021/06/08 03:41:48;;;;;;;21.40;17.00;;;;;;;16.19;100.00;94960.13;5017720;28;20441;-82
2021/06/08 03:44:16;;;;;;;29.50;18.57;;;;;;;16.23;99.57;94956.19;5017767;28;20792;-83
2021/06/08 03:46:44;;;;;;;25.43;16.30;;;;;;;16.25;99.45;94962.97;5018243;28;20448;-82
2021/06/08 03:49:13;;;;;;;24.50;16.60;;;;;;;16.26;99.41;94963.81;5017828;28;20433;-82
2021/06/08 03:51:40;;;;;;;23.43;16.27;;;;;;;16.25;99.06;94964.81;4983855;28;20526;-83
2021/06/08 03:54:06;;;;;;;30.13;18.50;;;;;;;16.19;98.43;94968.94;5017638;28;20438;-82
2021/06/08 03:56:34;;;;;;;24.17;16.87;;;;;;;16.25;99.11;94976.22;5017589;28;20455;-82
2021/06/08 03:59:01;;;;;;;22.83;17.00;;;;;;;16.25;99.31;94970.91;5017883;28;20815;-82
2021/06/08 04:01:29;;;;;;;24.80;17.07;;;;;;;16.30;99.60;94979.19;5018080;28;20842;-82
2021/06/08 04:03:56;;;;;;;22.00;15.63;;;;;;;16.36;99.82;94980.38;5018119;28;20452;-82
2021/06/08 04:06:24;;;;;;;27.97;18.57;;;;;;;16.37;100.00;94974.06;5017225;28;20520;-81
2021/06/08 04:08:50;;;;;;;26.60;16.63;;;;;;;16.39;99.31;94980.03;5017135;28;20976;-83
2021/06/08 04:11:18;;;;;;;27.23;18.53;;;;;;;16.38;99.31;94984.50;5016760;28;21046;-83
2021/06/08 04:13:46;;;;;;;27.30;17.43;;;;;;;16.36;99.84;94989.13;5017253;28;20797;-82
2021/06/08 04:16:12;;;;;;;22.73;16.73;;;;;;;16.40;100.00;94990.47;5017093;28;20467;-83
2021/06/08 04:18:40;;;;;;;24.80;18.13;;;;;;;16.42;100.00;94988.47;5018430;28;20830;-84
2021/06/08 04:21:07;;;;;;;24.90;16.80;;;;;;;16.49;99.73;94991.31;5019214;28;20451;-85
2021/06/08 04:23:41;;;;;;;23.07;15.30;;;;;;;16.52;100.00;94976.91;5025386;28;20446;-83
2021/06/08 04:26:08;;;;;;;26.33;17.63;;;;;;;16.61;100.00;94982.06;5024705;28;20457;-82
2021/06/08 04:28:34;;;;;;;27.83;19.50;;;;;;;16.58;98.85;94987.69;4961334;28;20475;-83
2021/06/08 04:31:01;;;;;;;22.87;17.80;;;;;;;16.54;98.23;94990.84;5000149;28;20483;-85
2021/06/08 04:33:30;;;;;;;23.77;16.20;;;;;;;16.54;98.69;94989.00;4998114;28;20910;-84
2021/06/08 04:35:57;;;;;;;27.17;18.90;;;;;;;16.54;99.08;94989.00;4999394;28;20441;-85
2021/06/08 04:38:24;;;;;;;22.10;18.20;;;;;;;16.59;99.66;94989.34;4998994;28;20437;-85
2021/06/08 04:40:53;;;;;;;27.70;20.33;;;;;;;16.62;99.02;94994.31;4997839;28;20936;-85
2021/06/08 04:43:23;;;;;;;21.20;16.83;;;;;;;16.65;99.03;94988.69;4997188;28;20976;-84
2021/06/08 04:45:50;;;;;;;27.00;19.70;;;;;;;16.64;98.80;94994.97;4997123;28;20444;-85
2021/06/08 04:48:17;;;;;;;24.40;16.67;;;;;;;16.64;98.93;94988.84;4997707;28;20468;-86
2021/06/08 04:50:44;;;;;;;22.47;17.53;;;;;;;16.64;98.59;94997.63;4999176;28;20474;-86
2021/06/08 04:53:11;;;;;;;27.10;18.00;;;;;;;16.66;98.43;94994.84;4997357;28;20811;-85
2021/06/08 04:55:38;;;;;;;22.63;18.33;;;;;;;16.66;98.62;94994.84;4996974;28;20467;-84
2021/06/08 04:58:06;;;;;;;31.63;19.10;;;;;;;16.66;97.89;94995.66;4997157;28;20470;-84
2021/06/08 05:00:37;;;;;;;28.70;18.37;;;;;;;16.70;98.67;94996.16;4997040;28;20432;-84
2021/06/08 05:03:07;;;;;;;23.37;18.63;;;;;;;16.74;98.88;95000.13;4997672;28;20486;-85
2021/06/08 05:05:38;;;;;;;25.90;17.97;;;;;;;16.82;98.20;94996.69;4997565;28;20448;-84
2021/06/08 05:08:10;;;;;;;22.20;18.30;;;;;;;16.83;97.68;95001.81;4997257;28;20486;-84
2021/06/08 05:10:41;;;;;;;29.80;16.80;;;;;;;16.88;96.64;94998.66;4997087;28;20927;-84
2021/06/08 05:13:11;;;;;;;27.13;18.73;;;;;;;16.81;95.71;95003.81;4964278;28;21271;-84
2021/06/08 05:15:39;;;;;;;21.77;18.60;;;;;;;16.67;96.57;95013.22;4998756;28;20502;-84
2021/06/08 05:18:08;;;;;;;23.60;17.80;;;;;;;16.68;96.50;95011.41;4998000;28;20446;-84
2021/06/08 05:20:38;;;;;;;23.30;17.50;;;;;;;16.70;97.23;95012.06;4997092;28;20448;-84
2021/06/08 05:26:26;;;;;;;25.87;17.73;;;;;;;17.61;98.42;94996.72;4997021;28;20399;-81
2021/06/08 05:28:55;;;;;;;22.30;16.47;;;;;;;18.31;94.38;95003.94;4996218;28;20460;-83
2021/06/08 05:31:22;;;;;;;19.80;16.43;;;;;;;18.89;89.28;95013.22;4996478;28;20487;-82
2021/06/08 05:33:48;;;;;;;16.57;14.77;;;;;;;19.57;85.42;95016.81;4998032;28;20911;-83
2021/06/08 05:36:15;;;;;;;19.10;15.67;;;;;;;19.98;83.48;95025.19;4996953;28;20810;-83
2021/06/08 05:38:43;;;;;;;23.53;16.13;;;;;;;20.67;82.69;95020.31;4996394;28;20464;-81
2021/06/08 05:41:11;;;;;;;22.17;17.60;;;;;;;20.95;76.29;95023.88;4997377;28;20468;-83
2021/06/08 05:43:39;;;;;;;25.00;13.97;;;;;;;21.08;75.03;95027.69;4983037;28;20453;-83
2021/06/08 05:46:08;;;;;;;15.70;14.07;;;;;;;20.97;74.60;95021.84;4991640;28;20437;-83
2021/06/08 05:48:36;;;;;;;17.53;15.10;;;;;;;20.38;75.31;95016.69;4996339;28;20506;-83
2021/06/08 05:51:05;;;;;;;18.83;15.63;;;;;;;20.33;77.86;95021.75;4996605;28;20476;-82
2021/06/08 05:53:32;;;;;;;26.87;16.40;;;;;;;20.30;77.90;95023.97;4997586;28;20805;-83
2021/06/08 05:56:00;;;;;;;21.37;15.47;;;;;;;20.87;79.13;95021.34;4997525;28;20452;-82
2021/06/08 05:58:28;;;;;;;19.13;15.97;;;;;;;21.49;76.05;95019.88;4997956;28;20459;-83
2021/06/08 06:00:56;;;;;;;19.80;15.80;;;;;;;21.43;73.95;95021.47;4997079;28;20930;-82
2021/06/08 06:03:25;;;;;;;18.80;16.20;;;;;;;20.87;75.24;95020.53;4979435;28;20504;-82
2021/06/08 06:05:55;;;;;;;25.40;17.57;;;;;;;20.37;77.33;95015.03;4996711;28;20846;-82
2021/06/08 06:08:22;;;;;;;21.40;16.23;;;;;;;20.32;77.80;95017.44;4999388;28;20483;-82
2021/06/08 06:10:49;;;;;;;21.07;17.53;;;;;;;19.97;80.68;95019.03;5015120;28;20459;-81
2021/06/08 06:13:17;;;;;;;23.80;17.60;;;;;;;19.89;82.54;95010.28;5015231;28;20495;-82
2021/06/08 06:15:45;;;;;;;22.77;17.47;;;;;;;19.69;83.75;95016.19;5015498;28;20448;-82
2021/06/08 06:18:13;;;;;;;22.40;18.47;;;;;;;19.81;82.59;95013.88;5015994;28;20963;-83
2021/06/08 06:20:42;;;;;;;21.80;17.20;;;;;;;20.19;81.39;95011.91;5015041;28;20451;-83
2021/06/08 06:23:09;;;;;;;21.83;17.13;;;;;;;20.33;81.05;95013.75;5014935;28;20469;-82
2021/06/08 06:25:36;;;;;;;21.10;18.57;;;;;;;20.34;81.11;95014.56;5014738;28;20987;-83
2021/06/08 06:28:20;;;;;;;19.73;16.97;;;;;;;20.55;80.90;95012.00;4935576;29;20443;-83
2021/06/08 06:30:47;;;;;;;21.10;17.13;;;;;;;20.59;78.63;95015.09;4935174;29;20455;-82
2021/06/08 06:33:16;;;;;;;23.93;18.30;;;;;;;20.90;77.49;95015.63;4936060;29;20471;-82
2021/06/08 06:35:44;;;;;;;20.37;17.57;;;;;;;21.43;76.28;95010.81;4935153;29;20478;-82
2021/06/08 06:38:12;;;;;;;22.10;17.90;;;;;;;21.25;77.45;95013.09;4935166;29;20448;-83
2021/06/08 06:40:39;;;;;;;18.90;16.73;;;;;;;21.27;76.58;95014.56;4935331;29;20858;-82
2021/06/08 06:43:27;;;;;;;21.73;17.63;;;;;;;21.48;74.89;95008.38;4878617;29;20818;-82
2021/06/08 06:45:54;;;;;;;21.00;16.90;;;;;;;21.93;75.40;95000.84;4881537;29;20460;-83
2021/06/08 06:48:21;;;;;;;21.57;16.77;;;;;;;22.57;73.13;95003.22;4883169;29;20457;-83
2021/06/08 06:50:53;;;;;;;19.80;17.00;;;;;;;22.85;68.68;95008.47;4879515;29;20456;-83
2021/06/08 06:53:20;;;;;;;18.97;16.53;;;;;;;23.27;70.15;95001.94;4879226;29;20449;-83
2021/06/08 06:55:48;;;;;;;18.20;15.90;;;;;;;23.46;67.88;94998.44;4884184;29;20456;-82
2021/06/08 06:58:17;;;;;;;19.27;16.67;;;;;;;23.56;67.53;95003.41;4881836;29;20462;-82
2021/06/08 07:00:43;;;;;;;21.13;17.83;;;;;;;23.73;67.05;94996.59;4852781;29;20451;-83
2021/06/08 07:03:13;;;;;;;24.33;17.80;;;;;;;24.16;66.73;94998.75;4882626;29;20472;-83
2021/06/08 07:05:40;;;;;;;16.67;14.77;;;;;;;24.57;66.80;94992.22;4923955;29;20434;-84
2021/06/08 07:08:09;;;;;;;23.17;16.30;;;;;;;24.68;63.11;95000.44;4988662;28;20461;-83
2021/06/08 07:10:36;;;;;;;18.50;15.37;;;;;;;24.96;63.67;94985.81;5025976;28;20446;-83
2021/06/08 07:13:06;;;;;;;22.37;17.50;;;;;;;24.90;63.13;94989.38;5023663;28;20479;-83
2021/06/08 07:15:38;;;;;;;19.47;17.43;;;;;;;24.88;63.78;94986.91;4974219;28;20506;-83
2021/06/08 07:18:05;;;;;;;25.30;17.37;;;;;;;24.89;63.46;94985.03;5004948;28;20459;-83
2021/06/08 07:20:34;;;;;;;22.33;17.47;;;;;;;24.38;64.28;94980.53;5001647;28;20950;-83
2021/06/08 07:23:24;;;;;;;23.97;18.23;;;;;;;24.48;65.93;94970.19;5008585;28;20437;-84
2021/06/08 07:25:52;;;;;;;20.60;17.57;;;;;;;24.84;65.63;94976.78;4927089;28;20527;-83
2021/06/08 07:28:20;;;;;;;19.17;17.10;;;;;;;25.04;64.39;94974.00;4980641;28;20453;-84
2021/06/08 07:30:49;;;;;;;29.90;18.20;;;;;;;25.08;63.06;94976.03;4976800;28;20451;-84
2021/06/08 07:33:22;;;;;;;19.80;17.70;;;;;;;25.13;63.22;94972.69;4978779;28;20456;-83
2021/06/08 07:35:53;;;;;;;20.57;18.40;;;;;;;25.13;62.70;94973.50;4979508;28;20460;-83
2021/06/08 07:38:26;;;;;;;25.13;19.00;;;;;;;25.17;63.45;94977.44;4978348;28;20445;-84
2021/06/08 07:41:02;;;;;;;23.33;17.97;;;;;;;25.01;63.74;94975.28;4980228;28;20441;-83
2021/06/08 07:43:34;;;;;;;29.30;19.90;;;;;;;25.02;64.39;94979.59;4990504;28;20469;-83
2021/06/08 07:46:05;;;;;;;19.33;17.33;;;;;;;24.78;65.08;94977.66;5018296;28;20451;-82
2021/06/08 07:48:33;;;;;;;20.47;18.27;;;;;;;24.40;66.36;94973.94;5017806;28;20435;-83
2021/06/08 08:01:28;;;;;;;25.70;19.73;;;;;;;23.79;68.92;94970.81;5023417;28;20491;-83
2021/06/08 08:03:55;;;;;;;23.60;20.70;;;;;;;23.55;69.16;94974.94;4959993;29;20451;-83
2021/06/08 08:06:24;;;;;;;29.37;23.67;;;;;;;23.64;67.89;94980.91;4959159;29;20460;-83
2021/06/08 08:08:53;;;;;;;30.17;23.50;;;;;;;23.48;67.59;94979.47;4959690;29;20531;-83
2021/06/08 08:11:21;;;;;;;29.43;22.90;;;;;;;23.55;69.69;94979.47;4960123;29;20485;-82
2021/06/08 08:13:52;;;;;;;29.77;24.10;;;;;;;23.72;68.12;94978.03;4959589;29;20532;-83
2021/06/08 08:16:21;;;;;;;35.67;25.53;;;;;;;23.95;68.04;94981.06;4960259;28;21086;-83
2021/06/08 08:18:48;;;;;;;43.13;28.20;;;;;;;24.03;66.18;94980.03;4957238;29;20832;-83
2021/06/08 08:21:16;;;;;;;37.73;27.30;;;;;;;24.08;65.81;94974.84;4955756;28;20435;-83
2021/06/08 08:23:44;;;;;;;30.20;25.40;;;;;;;24.46;66.96;94982.97;4957241;28;20810;-82
2021/06/08 08:26:12;;;;;;;31.23;25.33;;;;;;;24.64;64.60;94979.59;4956558;29;20440;-81
2021/06/08 08:28:41;;;;;;;34.67;25.40;;;;;;;24.81;64.48;94982.59;4991657;28;20453;-82
2021/06/08 08:31:10;;;;;;;28.93;22.60;;;;;;;24.84;63.87;94974.09;5004757;28;20442;-82
2021/06/08 08:33:38;;;;;;;33.20;23.57;;;;;;;25.17;61.80;94973.94;4997832;28;20923;-81
2021/06/08 08:36:06;;;;;;;25.20;18.83;;;;;;;25.47;62.25;94963.34;4997494;28;20947;-82
2021/06/08 08:38:33;;;;;;;30.00;20.77;;;;;;;25.82;60.74;94969.03;4997241;28;20506;-82
2021/06/08 08:41:01;;;;;;;16.80;14.17;;;;;;;26.03;55.87;94967.78;4963731;28;20453;-81
2021/06/08 08:43:28;;;;;;;22.10;15.73;;;;;;;26.14;55.07;94961.66;4997499;28;20432;-83
2021/06/08 08:45:56;;;;;;;22.20;18.90;;;;;;;26.26;58.16;94957.16;4998022;28;20456;-83
2021/06/08 08:48:22;;;;;;;24.87;15.80;;;;;;;26.32;56.22;94945.50;4998748;28;20456;-83
2021/06/08 08:50:51;;;;;;;14.50;13.03;;;;;;;26.38;54.08;94950.03;4999403;28;20455;-84
2021/06/08 08:53:19;;;;;;;14.70;12.77;;;;;;;26.47;52.94;94945.13;4997987;28;20495;-84
2021/06/08 08:55:46;;;;;;;14.83;10.83;;;;;;;26.46;54.17;94940.81;4998149;28;20444;-84
2021/06/08 08:58:14;;;;;;;14.57;12.40;;;;;;;26.60;53.04;94934.22;4997933;28;20990;-84
2021/06/08 09:00:42;;;;;;;14.53;13.03;;;;;;;26.64;53.08;94940.78;4997886;28;20964;-83
2021/06/08 09:03:12;;;;;;;11.50;10.03;;;;;;;26.68;49.31;94928.50;4998226;28;20459;-84
2021/06/08 09:05:38;;;;;;;11.67;10.47;;;;;;;26.65;49.88;94925.44;4999656;28;20463;-84
2021/06/08 09:08:10;;;;;;;12.77;11.40;;;;;;;26.73;50.54;94917.03;4965919;28;20980;-84
2021/06/08 09:10:39;;;;;;;18.83;13.00;;;;;;;26.70;51.13;94910.25;5017369;28;20447;-83
2021/06/08 09:13:06;;;;;;;18.43;14.20;;;;;;;26.46;53.25;94914.72;5016677;28;20529;-82
2021/06/08 09:15:35;;;;;;;17.07;15.27;;;;;;;26.14;54.52;94910.56;5018351;28;20436;-83
2021/06/08 09:18:04;;;;;;;20.10;14.90;;;;;;;26.29;55.93;94908.28;5016703;28;20450;-83
2021/06/08 09:20:33;;;;;;;18.63;15.20;;;;;;;25.82;54.70;94893.75;5016619;28;20444;-82
2021/06/08 09:23:01;;;;;;;19.30;15.00;;;;;;;25.68;54.16;94901.13;5015642;28;20455;-83
2021/06/08 09:25:47;;;;;;;20.53;12.87;;;;;;;25.91;55.87;94895.91;5016237;28;20997;-82
2021/06/08 09:28:19;;;;;;;18.40;13.47;;;;;;;25.73;55.43;94882.47;5015282;28;20444;-83
2021/06/08 09:30:46;;;;;;;16.23;12.13;;;;;;;25.40;57.29;94885.47;5015780;28;20815;-82
2021/06/08 09:33:19;;;;;;;15.53;10.63;;;;;;;25.39;50.50;94888.38;5014963;28;20529;-82
2021/06/08 09:35:50;;;;;;;19.53;12.97;;;;;;;25.52;55.41;94881.03;5015919;28;20447;-84
2021/06/08 09:38:17;;;;;;;12.47;11.20;;;;;;;25.64;55.74;94884.59;5015490;28;20443;-83
2021/06/08 09:47:32;;;;;;;14.10;11.03;;;;;;;25.19;53.19;94861.72;5014041;28;21001;-83
2021/06/08 09:49:59;;;;;;;10.70;9.40;;;;;;;25.19;52.23;94870.59;5015359;28;20439;-84
2021/06/08 09:52:26;;;;;;;10.70;8.50;;;;;;;25.08;53.11;94865.13;4980629;28;20998;-84
2021/06/08 09:54:58;;;;;;;8.00;7.20;;;;;;;25.02;51.42;94870.31;5016399;28;20927;-83
2021/06/08 09:57:27;;;;;;;8.20;7.40;;;;;;;24.68;51.34;94863.56;5015580;28;20827;-83
2021/06/08 09:59:56;;;;;;;12.27;8.23;;;;;;;24.91;53.71;94854.91;5015051;28;20438;-82
2021/06/08 10:02:38;;;;;;;9.87;8.87;;;;;;;25.10;53.91;94853.09;5014994;28;20527;-83
2021/06/08 10:05:24;;;;;;;11.20;8.20;;;;;;;24.96;52.86;94844.34;5015287;28;20489;-81
2021/06/08 10:07:52;;;;;;;17.50;9.93;;;;;;;24.88;51.70;94847.31;5015797;28;20469;-82
2021/06/08 10:10:21;;;;;;;14.53;8.93;;;;;;;24.95;51.55;94839.19;5014682;28;20497;-82
2021/06/08 10:12:57;;;;;;;8.10;7.40;;;;;;;24.99;53.83;94843.09;5015596;28;20482;-82
2021/06/08 10:15:24;;;;;;;9.70;8.30;;;;;;;24.90;54.66;94839.84;5017053;28;20466;-82
2021/06/08 10:17:58;;;;;;;14.60;8.90;;;;;;;24.41;53.21;94848.69;5016753;28;20972;-82
2021/06/08 10:20:27;;;;;;;8.47;7.60;;;;;;;24.52;54.00;94836.41;5016468;28;20537;-82
2021/06/08 10:22:54;;;;;;;10.03;7.83;;;;;;;24.47;52.99;94838.94;4985284;28;20550;-82
2021/06/08 10:25:21;;;;;;;8.43;7.60;;;;;;;24.57;52.17;94840.09;5027566;28;20457;-83
2021/06/08 10:27:51;;;;;;;7.90;7.20;;;;;;;24.34;53.99;94837.16;5029393;28;20474;-82
2021/06/08 10:30:20;;;;;;;9.10;8.20;;;;;;;24.07;52.92;94839.16;5027877;28;20454;-81
2021/06/08 10:32:48;;;;;;;7.80;7.10;;;;;;;24.21;51.43;94835.34;5026130;28;20458;-84
2021/06/08 10:35:18;;;;;;;9.20;8.40;;;;;;;24.41;54.14;94835.25;5034342;28;20447;-81
2021/06/08 10:37:45;;;;;;;17.37;9.70;;;;;;;24.67;61.72;94829.69;5028868;28;20450;-83
2021/06/08 10:40:13;;;;;;;8.93;8.13;;;;;;;24.83;55.15;94822.13;5025677;28;20447;-84
2021/06/08 10:42:40;;;;;;;7.37;6.70;;;;;;;24.94;54.67;94829.50;5027307;28;20458;-83
2021/06/08 10:45:10;;;;;;;8.80;8.00;;;;;;;24.87;56.51;94818.81;4984604;28;21130;-84
2021/06/08 10:47:42;;;;;;;10.93;7.43;;;;;;;24.90;52.15;94820.22;4978060;28;20463;-84
2021/06/08 10:50:29;;;;;;;9.40;8.57;;;;;;;25.17;54.82;94816.28;4982744;28;20852;-85
2021/06/08 10:52:58;;;;;;;8.10;7.13;;;;;;;25.32;50.15;94803.31;4980252;28;20488;-85
2021/06/08 10:55:26;;;;;;;8.53;7.07;;;;;;;25.46;50.71;94800.50;4978035;28;20609;-84
2021/06/08 10:57:53;;;;;;;8.00;7.30;;;;;;;25.38;50.76;94804.28;4984108;28;20447;-84
2021/06/08 11:00:41;;;;;;;8.10;7.23;;;;;;;25.31;50.46;94796.28;4978719;28;20475;-83
2021/06/08 11:03:13;;;;;;;7.43;6.67;;;;;;;25.38;48.23;94795.38;4998635;28;20451;-83
2021/06/08 11:05:58;;;;;;;7.40;6.70;;;;;;;25.41;46.89;94800.31;5022670;28;20443;-82
2021/06/08 11:09:00;;;;;;;7.00;6.40;;;;;;;25.40;47.22;94796.00;5021340;28;20959;-83
2021/06/08 11:11:47;;;;;;;7.30;6.70;;;;;;;25.54;46.36;94797.50;5019290;28;20450;-83
2021/06/08 11:14:48;;;;;;;9.87;7.37;;;;;;;25.81;47.77;94790.78;5018358;28;20450;-83
2021/06/08 11:17:27;;;;;;;7.53;6.93;;;;;;;26.09;48.30;94784.81;5017314;28;20440;-83
2021/06/08 11:19:56;;;;;;;9.67;8.63;;;;;;;26.14;48.14;94782.25;5017806;28;20490;-83
2021/06/08 11:22:55;;;;;;;8.57;7.30;;;;;;;26.32;46.86;94789.47;5019747;28;20502;-82
2021/06/08 11:25:52;;;;;;;7.77;7.17;;;;;;;26.27;46.69;94792.00;5023458;28;20455;-83
2021/06/08 11:28:19;;;;;;;7.90;7.10;;;;;;;26.12;46.65;94791.59;5025992;28;20951;-83
2021/06/08 11:30:56;;;;;;;7.93;7.23;;;;;;;26.09;47.70;94805.50;5026380;28;20942;-83
2021/06/08 11:33:32;;;;;;;10.50;6.97;;;;;;;25.64;52.04;94805.84;5026328;28;20487;-83
2021/06/08 11:36:01;;;;;;;7.00;6.37;;;;;;;24.90;54.31;94801.44;5024519;28;20474;-82
2021/06/08 11:38:34;;;;;;;7.13;6.53;;;;;;;24.51;55.42;94807.94;5024655;28;20458;-83
2021/06/08 11:41:07;;;;;;;6.87;5.70;;;;;;;24.05;57.64;94807.19;5022974;28;20445;-83
2021/06/08 11:43:55;;;;;;;7.57;6.37;;;;;;;23.90;59.76;94797.78;5023940;28;20493;-83
2021/06/08 11:46:28;;;;;;;7.47;6.20;;;;;;;23.70;60.86;94798.69;4988253;28;20441;-82
2021/06/08 11:49:13;;;;;;;8.93;6.07;;;;;;;23.54;61.16;94795.66;5019498;28;20439;-83
2021/06/08 11:51:45;;;;;;;8.00;6.77;;;;;;;23.46;61.07;94802.09;5017068;28;20563;-82
2021/06/08 11:54:14;;;;;;;6.70;5.87;;;;;;;23.57;59.84;94805.97;5017610;28;20442;-83
2021/06/08 11:56:47;;;;;;;6.50;6.00;;;;;;;23.54;59.21;94796.47;5019489;28;20477;-83
2021/06/08 11:59:14;;;;;;;6.30;5.67;;;;;;;23.51;58.87;94807.63;5019859;28;20435;-83
2021/06/08 12:01:42;;;;;;;7.40;5.50;;;;;;;23.63;59.68;94789.88;5018202;28;20450;-84
2021/06/08 12:04:09;;;;;;;9.00;5.93;;;;;;;23.77;59.21;94802.19;5018101;28;20756;-84
2021/06/08 12:07:13;;;;;;;6.27;5.30;;;;;;;23.94;58.15;94793.63;4999413;28;20469;-84
2021/06/08 12:09:46;;;;;;;5.57;5.17;;;;;;;24.05;57.79;94796.47;5013633;28;20882;-83
2021/06/08 12:12:15;;;;;;;5.80;5.30;;;;;;;24.11;57.24;94792.09;5007588;28;20544;-84
2021/06/08 12:14:50;;;;;;;6.77;6.07;;;;;;;24.23;57.17;94794.91;5017356;28;20509;-84
2021/06/08 12:17:17;;;;;;;5.63;5.13;;;;;;;24.44;57.73;94785.72;5017825;28;20432;-84
2021/06/08 12:19:44;;;;;;;5.30;4.90;;;;;;;24.59;55.63;94779.00;5017553;28;20447;-84